Time;durP1;ratioP1;P1;durP2;ratioP2;P2;SDS_P1;SDS_P2;PMS_P1;PMS_P2;Temp;Humidity;BMP_temperature;BMP_pressure;BME280_temperature;BME280_humidity;BME280_pressure;Samples;Min_cycle;Max_cycle;Signal;HPM_P1;HPM_P2
2022/10/10 00:01:09;;;;;;;5.63;5.03;;;8.80;99.90;;;;;;4841277;29;20100;-66
2022/10/10 00:03:36;;;;;;;9.10;5.50;;;8.80;99.90;;;;;;4834615;29;20083;-64
2022/10/10 00:06:02;;;;;;;;;;;8.80;99.90;;;;;;4834185;29;20210;-66
2022/10/10 00:08:29;;;;;;;4.63;4.22;;;8.80;99.90;;;;;;4839577;29;20017;-66
2022/10/10 00:10:56;;;;;;;5.68;5.07;;;8.80;99.90;;;;;;4831649;29;20053;-64
2022/10/10 00:13:23;;;;;;;11.80;5.20;;;8.70;99.90;;;;;;4833965;29;20100;-65
2022/10/10 00:15:49;;;;;;;;;;;8.70;99.90;;;;;;4835582;29;20045;-66
2022/10/10 00:18:16;;;;;;;4.53;3.60;;;8.70;99.90;;;;;;4832629;29;19928;-66
2022/10/10 00:20:43;;;;;;;9.43;3.65;;;8.70;99.90;;;;;;4834096;29;20046;-66
2022/10/10 00:23:10;;;;;;;;;;;8.70;99.90;;;;;;4829988;29;20371;-65
2022/10/10 00:25:36;;;;;;;3.50;3.20;;;8.70;99.90;;;;;;4827661;29;19931;-66
2022/10/10 00:28:03;;;;;;;;;;;8.70;99.90;;;;;;4831648;29;20388;-65
2022/10/10 00:30:31;;;;;;;12.60;4.20;;;8.70;99.90;;;;;;4835091;29;19931;-66
2022/10/10 00:32:58;;;;;;;3.67;2.90;;;8.70;99.90;;;;;;4832023;29;20235;-64
2022/10/10 00:35:26;;;;;;;4.47;3.22;;;8.70;99.90;;;;;;4837065;29;20049;-66
2022/10/10 00:37:52;;;;;;;3.78;3.10;;;8.80;99.90;;;;;;4833608;29;20049;-65
2022/10/10 00:40:19;;;;;;;;;;;8.80;99.90;;;;;;4833467;29;20369;-66
2022/10/10 00:42:46;;;;;;;3.10;2.80;;;8.80;99.90;;;;;;4834053;29;20504;-67
2022/10/10 00:45:31;;;;;;;3.78;2.95;;;8.90;99.90;;;;;;4837891;29;20050;-67
2022/10/10 00:48:15;;;;;;;6.10;3.50;;;9.00;99.90;;;;;;4830556;29;20081;-65
2022/10/10 00:51:04;;;;;;;3.80;3.42;;;9.00;99.90;;;;;;4834976;29;20456;-65
2022/10/10 00:53:40;;;;;;;3.45;2.97;;;9.10;99.90;;;;;;4820843;29;20068;-66
2022/10/10 00:56:08;;;;;;;3.97;2.95;;;9.10;99.90;;;;;;4832693;29;20087;-66
2022/10/10 00:58:38;;;;;;;3.38;2.90;;;9.20;99.90;;;;;;4832365;29;20424;-66
2022/10/10 01:01:06;;;;;;;11.18;2.63;;;9.20;99.90;;;;;;4842768;29;20387;-65
2022/10/10 01:03:32;;;;;;;5.10;2.60;;;9.20;99.90;;;;;;4835033;29;20473;-65
2022/10/10 01:06:00;;;;;;;4.07;1.95;;;9.20;99.90;;;;;;4836962;29;20049;-65
2022/10/10 01:08:27;;;;;;;1.88;1.77;;;9.30;99.90;;;;;;4839792;29;20156;-65
2022/10/10 01:11:12;;;;;;;2.13;1.92;;;9.30;99.90;;;;;;4832348;29;20200;-67
2022/10/10 01:13:54;;;;;;;3.38;2.05;;;9.30;99.90;;;;;;4837781;29;20955;-65
2022/10/10 01:16:50;;;;;;;2.40;2.15;;;9.40;99.90;;;;;;4835155;29;20057;-66
2022/10/10 01:19:23;;;;;;;2.72;2.17;;;9.40;99.90;;;;;;4835519;29;20056;-64
2022/10/10 01:22:11;;;;;;;5.28;2.72;;;9.40;99.90;;;;;;4838226;29;20547;-65
2022/10/10 01:25:18;;;;;;;3.42;3.13;;;9.40;99.90;;;;;;4830426;29;20041;-65
2022/10/10 01:28:10;;;;;;;2.70;2.50;;;9.50;99.90;;;;;;4836855;29;20044;-67
2022/10/10 01:30:40;;;;;;;2.35;2.15;;;9.50;99.90;;;;;;4833364;29;20109;-66
2022/10/10 01:33:18;;;;;;;4.22;2.22;;;9.50;99.90;;;;;;4836546;29;20576;-66
2022/10/10 01:36:02;;;;;;;3.92;2.83;;;9.50;99.90;;;;;;4838910;29;20177;-66
2022/10/10 01:38:35;;;;;;;2.33;2.08;;;9.50;99.90;;;;;;4835037;29;20061;-66
2022/10/10 01:41:09;;;;;;;1.63;1.52;;;9.50;99.90;;;;;;4828903;29;20052;-65
2022/10/10 01:43:36;;;;;;;2.50;1.80;;;9.50;99.90;;;;;;4835868;29;20128;-65
2022/10/10 01:46:11;;;;;;;2.67;2.45;;;9.50;99.90;;;;;;4830035;29;20349;-65
2022/10/10 01:48:38;;;;;;;3.42;2.10;;;9.60;99.90;;;;;;4828708;29;20052;-66
2022/10/10 01:51:17;;;;;;;2.22;1.60;;;9.60;99.90;;;;;;4832239;29;20050;-65
2022/10/10 01:54:05;;;;;;;3.35;1.52;;;9.60;99.90;;;;;;4828165;29;20612;-65
2022/10/10 01:56:37;;;;;;;3.15;1.85;;;9.60;99.90;;;;;;4834395;29;20055;-65
2022/10/10 01:59:41;;;;;;;3.20;2.20;;;9.60;99.90;;;;;;4830406;29;20064;-65
2022/10/10 02:02:20;;;;;;;2.80;2.13;;;9.60;99.90;;;;;;4833567;29;20413;-65
2022/10/10 02:04:56;;;;;;;2.63;1.85;;;9.70;99.90;;;;;;4835470;29;20060;-66
2022/10/10 02:07:29;;;;;;;1.60;1.50;;;9.70;99.90;;;;;;4837303;29;20077;-65
2022/10/10 02:09:59;;;;;;;3.17;1.90;;;9.70;99.90;;;;;;4830908;29;20630;-66
2022/10/10 02:12:28;;;;;;;2.83;2.20;;;9.70;99.90;;;;;;4834423;29;20291;-65
2022/10/10 02:15:03;;;;;;;1.40;1.30;;;9.70;99.90;;;;;;4834112;29;20160;-65
2022/10/10 02:17:33;;;;;;;7.18;1.88;;;9.70;99.90;;;;;;4832687;29;20054;-66
2022/10/10 02:20:00;;;;;;;7.32;2.63;;;9.70;99.90;;;;;;4836257;29;20046;-66
2022/10/10 02:22:28;;;;;;;1.63;1.52;;;9.70;99.90;;;;;;4836244;29;20129;-67
2022/10/10 02:24:55;;;;;;;1.60;1.50;;;9.70;99.90;;;;;;4839478;29;20049;-66
2022/10/10 02:27:36;;;;;;;;;;;9.70;99.90;;;;;;4832562;29;20605;-66
2022/10/10 02:30:04;;;;;;;3.03;2.08;;;9.70;99.90;;;;;;4830614;29;20036;-66
2022/10/10 02:32:43;;;;;;;2.15;1.50;;;9.70;99.90;;;;;;4832750;29;20049;-65
2022/10/10 02:35:16;;;;;;;1.55;1.45;;;9.70;99.90;;;;;;4830751;29;20061;-66
2022/10/10 02:37:45;;;;;;;1.33;1.23;;;9.70;99.90;;;;;;4832909;29;20873;-67
2022/10/10 02:40:18;;;;;;;1.20;1.10;;;9.70;99.90;;;;;;4831803;29;20100;-66
2022/10/10 02:42:47;;;;;;;1.55;1.40;;;9.70;99.90;;;;;;4830998;29;20337;-67
2022/10/10 02:45:15;;;;;;;5.82;2.22;;;9.70;99.90;;;;;;4830299;29;20466;-65
2022/10/10 02:47:44;;;;;;;4.07;1.67;;;9.70;99.90;;;;;;4829878;29;20082;-65
2022/10/10 02:50:11;;;;;;;3.42;1.98;;;9.70;99.90;;;;;;4831846;29;20388;-65
2022/10/10 02:52:37;;;;;;;;;;;9.70;99.90;;;;;;4826470;29;20053;-66
2022/10/10 02:55:05;;;;;;;3.88;2.05;;;9.70;99.90;;;;;;4832796;29;20550;-64
2022/10/10 02:57:32;;;;;;;2.80;1.60;;;9.70;99.90;;;;;;4831578;29;20050;-65
2022/10/10 02:59:59;;;;;;;5.18;1.88;;;9.70;99.90;;;;;;4829310;29;20049;-65
2022/10/10 03:02:26;;;;;;;2.60;1.50;;;9.70;99.90;;;;;;4830327;29;20097;-66
2022/10/10 03:04:52;;;;;;;2.72;2.30;;;9.70;99.90;;;;;;4833914;29;20053;-64
2022/10/10 03:07:19;;;;;;;1.70;1.60;;;9.70;99.90;;;;;;4831801;29;20539;-65
2022/10/10 03:09:46;;;;;;;1.40;1.30;;;9.70;99.90;;;;;;4835782;29;20717;-66
2022/10/10 03:12:12;;;;;;;6.55;1.63;;;9.70;99.90;;;;;;4837823;29;20057;-65
2022/10/10 03:14:39;;;;;;;3.83;1.88;;;9.70;99.90;;;;;;4834488;29;20132;-66
2022/10/10 03:17:06;;;;;;;3.90;1.35;;;9.70;99.90;;;;;;4834146;29;20328;-66
2022/10/10 03:19:32;;;;;;;;;;;9.70;99.90;;;;;;4834471;29;20083;-64
2022/10/10 03:21:59;;;;;;;1.80;1.58;;;9.70;99.90;;;;;;4833785;29;19983;-67
2022/10/10 03:24:26;;;;;;;1.85;1.50;;;9.70;99.90;;;;;;4830327;29;20709;-65
2022/10/10 03:26:53;;;;;;;1.88;1.13;;;9.80;99.90;;;;;;4835994;29;20576;-65
2022/10/10 03:29:20;;;;;;;2.50;1.30;;;9.70;99.90;;;;;;4829775;29;20685;-66
2022/10/10 03:31:47;;;;;;;7.30;1.58;;;9.70;99.90;;;;;;4832185;29;20041;-65
2022/10/10 03:34:14;;;;;;;2.20;1.05;;;9.80;99.90;;;;;;4828379;29;20310;-66
2022/10/10 03:36:41;;;;;;;;;;;9.80;99.90;;;;;;4832511;29;20444;-65
2022/10/10 03:39:08;;;;;;;5.30;1.38;;;9.80;99.90;;;;;;4835853;29;20373;-65
2022/10/10 03:41:35;;;;;;;2.40;1.33;;;9.80;99.90;;;;;;4831400;29;20069;-66
2022/10/10 03:44:02;;;;;;;2.53;1.33;;;9.80;99.90;;;;;;4832553;29;20249;-65
2022/10/10 03:46:28;;;;;;;;;;;9.80;99.90;;;;;;4832429;29;20058;-65
2022/10/10 03:48:55;;;;;;;1.35;1.25;;;9.80;99.90;;;;;;4828234;29;20244;-66
2022/10/10 03:51:22;;;;;;;6.05;1.52;;;9.80;99.90;;;;;;4831469;29;20457;-65
2022/10/10 03:53:48;;;;;;;1.45;1.35;;;9.80;99.90;;;;;;4828175;29;20085;-65
2022/10/10 03:56:15;;;;;;;1.67;1.40;;;9.80;99.90;;;;;;4825747;29;20053;-65
2022/10/10 03:58:42;;;;;;;2.53;1.35;;;9.90;99.90;;;;;;4825501;29;20523;-66
2022/10/10 04:01:08;;;;;;;1.75;1.00;;;9.90;99.90;;;;;;4836522;29;20520;-65
2022/10/10 04:03:35;;;;;;;;;;;9.80;99.90;;;;;;4836717;29;20339;-65
2022/10/10 04:06:02;;;;;;;2.30;1.63;;;9.80;99.90;;;;;;4832256;29;19934;-65
2022/10/10 04:08:29;;;;;;;;;;;9.90;99.90;;;;;;4836324;29;20382;-65
2022/10/10 04:10:56;;;;;;;4.63;1.48;;;9.90;99.90;;;;;;4837075;29;19924;-66
2022/10/10 04:13:26;;;;;;;4.00;1.42;;;9.90;99.90;;;;;;4834755;29;20057;-65
2022/10/10 04:15:54;;;;;;;4.95;1.35;;;9.90;99.90;;;;;;4834922;29;20150;-65
2022/10/10 04:18:22;;;;;;;4.10;1.38;;;9.90;99.90;;;;;;4835663;29;20052;-65
2022/10/10 04:20:49;;;;;;;4.10;1.30;;;9.90;99.90;;;;;;4833596;29;20045;-66
2022/10/10 04:23:15;;;;;;;;;;;9.90;99.90;;;;;;4831953;29;20049;-65
2022/10/10 04:25:43;;;;;;;3.35;1.90;;;9.80;99.90;;;;;;4832425;29;20008;-66
2022/10/10 04:28:11;;;;;;;1.45;1.35;;;9.80;99.90;;;;;;4833489;29;20042;-65
2022/10/10 04:30:38;;;;;;;2.20;1.45;;;9.80;99.90;;;;;;4837994;29;20065;-64
2022/10/10 04:33:05;;;;;;;;;;;9.80;99.90;;;;;;4832121;29;20655;-66
2022/10/10 04:35:32;;;;;;;9.45;1.98;;;9.90;99.90;;;;;;4832363;29;19928;-66
2022/10/10 04:37:59;;;;;;;4.22;1.45;;;9.80;99.90;;;;;;4838699;29;20285;-65
2022/10/10 04:40:26;;;;;;;;;;;9.90;99.90;;;;;;4837426;29;20560;-65
2022/10/10 04:42:53;;;;;;;6.32;2.20;;;9.90;99.90;;;;;;4833178;29;19928;-65
2022/10/10 04:45:20;;;;;;;4.68;1.90;;;9.90;99.90;;;;;;4840773;29;20056;-66
2022/10/10 04:47:47;;;;;;;8.38;1.95;;;10.00;99.90;;;;;;4833503;29;20212;-66
2022/10/10 04:50:14;;;;;;;9.90;2.40;;;10.00;99.90;;;;;;4830846;29;20347;-68
2022/10/10 04:52:41;;;;;;;;;;;10.00;99.90;;;;;;4835689;29;20337;-65
2022/10/10 04:55:07;;;;;;;3.33;2.05;;;10.00;99.90;;;;;;4829368;29;19928;-67
2022/10/10 04:57:34;;;;;;;;;;;10.00;99.90;;;;;;4836422;29;20490;-67
2022/10/10 05:00:01;;;;;;;4.75;1.92;;;10.00;99.90;;;;;;4829057;29;19928;-66
2022/10/10 05:02:28;;;;;;;5.80;1.83;;;10.10;99.90;;;;;;4838401;29;20071;-65
2022/10/10 05:04:55;;;;;;;2.05;1.55;;;10.10;99.90;;;;;;4832431;29;20120;-67
2022/10/10 05:07:22;;;;;;;4.75;1.80;;;10.10;99.90;;;;;;4832528;29;20050;-66
2022/10/10 05:09:49;;;;;;;3.83;1.70;;;10.10;99.90;;;;;;4835813;29;20114;-65
2022/10/10 05:12:16;;;;;;;4.57;2.08;;;10.10;99.90;;;;;;4833652;29;20053;-66
2022/10/10 05:14:42;;;;;;;4.25;2.58;;;10.10;99.90;;;;;;4835422;29;20050;-64
2022/10/10 05:17:14;;;;;;;7.47;1.63;;;10.10;99.90;;;;;;4834693;29;20049;-62
2022/10/10 05:19:41;;;;;;;5.28;2.20;;;10.10;99.90;;;;;;4833116;29;20055;-65
2022/10/10 05:22:08;;;;;;;6.93;2.17;;;10.10;99.90;;;;;;4830726;29;20516;-65
2022/10/10 05:24:34;;;;;;;;;;;10.10;99.90;;;;;;4836230;29;20045;-65
2022/10/10 05:27:01;;;;;;;4.38;2.22;;;10.20;99.90;;;;;;4833191;29;19928;-64
2022/10/10 05:29:28;;;;;;;4.80;1.70;;;10.20;99.90;;;;;;4833876;29;20275;-67
2022/10/10 05:31:55;;;;;;;;;;;10.20;99.90;;;;;;4832114;29;20132;-67
2022/10/10 05:34:21;;;;;;;10.30;3.05;;;10.20;99.90;;;;;;4837466;29;19934;-63
2022/10/10 05:36:48;;;;;;;3.33;2.15;;;10.20;99.90;;;;;;4829591;29;20137;-68
2022/10/10 05:39:15;;;;;;;;;;;10.20;99.90;;;;;;4833399;29;20464;-65
2022/10/10 05:41:41;;;;;;;9.13;2.63;;;10.20;99.90;;;;;;4835386;29;19928;-66
2022/10/10 05:44:09;;;;;;;5.78;2.10;;;10.30;99.90;;;;;;4828502;29;20049;-66
2022/10/10 05:46:35;;;;;;;4.68;2.05;;;10.20;99.90;;;;;;4835200;29;20120;-64
2022/10/10 05:49:02;;;;;;;2.78;2.13;;;10.20;99.90;;;;;;4834340;29;20180;-64
2022/10/10 05:51:29;;;;;;;2.67;2.00;;;10.20;99.90;;;;;;4834939;29;20072;-65
2022/10/10 05:53:56;;;;;;;5.82;2.45;;;10.20;99.90;;;;;;4832326;29;20351;-63
2022/10/10 05:56:23;;;;;;;3.92;2.33;;;10.20;99.90;;;;;;4832398;29;20048;-67
2022/10/10 05:58:50;;;;;;;4.40;2.67;;;10.20;99.90;;;;;;4829697;29;20348;-67
2022/10/10 06:01:17;;;;;;;3.63;2.53;;;10.30;99.90;;;;;;4830901;29;20049;-65
2022/10/10 06:03:43;;;;;;;4.22;2.65;;;10.20;99.90;;;;;;4831422;29;20044;-66
2022/10/10 06:06:10;;;;;;;6.80;2.10;;;10.30;99.90;;;;;;4834020;29;20120;-65
2022/10/10 06:08:37;;;;;;;5.38;2.83;;;10.30;99.90;;;;;;4811637;29;20308;-63
2022/10/10 06:11:07;;;;;;;3.97;2.17;;;10.30;99.90;;;;;;4834208;29;20089;-64
2022/10/10 06:13:34;;;;;;;3.45;2.22;;;10.30;99.90;;;;;;4833226;29;20050;-63
2022/10/10 06:16:00;;;;;;;;;;;10.30;99.90;;;;;;4832612;29;20121;-63
2022/10/10 06:18:27;;;;;;;13.98;2.35;;;10.30;99.90;;;;;;4833887;29;20465;-64
2022/10/10 06:20:54;;;;;;;6.70;2.20;;;10.40;99.90;;;;;;4834057;29;20498;-64
2022/10/10 06:23:21;;;;;;;;;;;10.40;99.90;;;;;;4833293;29;20201;-65
2022/10/10 06:25:51;;;;;;;8.90;2.50;;;10.40;99.90;;;;;;4834525;29;19927;-64
2022/10/10 06:28:17;;;;;;;7.90;2.53;;;10.40;99.90;;;;;;4833254;29;20936;-63
2022/10/10 06:30:47;;;;;;;;;;;10.50;99.90;;;;;;4833804;29;20163;-53
2022/10/10 06:33:14;;;;;;;3.45;2.03;;;10.50;99.90;;;;;;4834041;29;19959;-52
2022/10/10 06:35:42;;;;;;;5.15;2.45;;;10.50;99.90;;;;;;4829892;29;20057;-53
2022/10/10 06:38:10;;;;;;;3.85;2.33;;;10.60;99.90;;;;;;4832793;29;20133;-50
2022/10/10 06:40:38;;;;;;;7.85;2.67;;;10.60;99.90;;;;;;4834493;29;20109;-55
2022/10/10 06:43:10;;;;;;;5.15;2.75;;;10.70;99.90;;;;;;4829243;29;20045;-57
2022/10/10 06:45:49;;;;;;;2.88;2.08;;;10.70;99.90;;;;;;4833662;29;20052;-55
2022/10/10 06:48:15;;;;;;;8.43;2.92;;;10.80;99.90;;;;;;4832670;29;20053;-51
2022/10/10 06:50:42;;;;;;;2.53;2.13;;;10.80;99.90;;;;;;4836119;29;20434;-53
2022/10/10 06:53:09;;;;;;;4.72;2.47;;;10.90;99.90;;;;;;4829509;29;20549;-55
2022/10/10 06:55:35;;;;;;;9.30;3.47;;;10.90;99.90;;;;;;4830449;29;20575;-53
2022/10/10 06:58:02;;;;;;;9.98;2.95;;;10.90;99.90;;;;;;4825915;29;20050;-54
2022/10/10 07:00:29;;;;;;;6.07;2.05;;;11.00;99.90;;;;;;4828410;29;20124;-55
2022/10/10 07:02:56;;;;;;;;;;;11.10;99.90;;;;;;4832857;29;20604;-54
2022/10/10 07:05:23;;;;;;;7.18;2.72;;;11.20;99.90;;;;;;4832285;29;19928;-51
2022/10/10 07:07:50;;;;;;;4.68;2.78;;;11.20;99.90;;;;;;4835269;29;20054;-55
2022/10/10 07:10:17;;;;;;;6.15;3.05;;;11.30;99.90;;;;;;4831293;29;20669;-52
2022/10/10 07:12:44;;;;;;;14.13;3.60;;;11.40;99.90;;;;;;4836100;29;20053;-55
2022/10/10 07:15:11;;;;;;;8.90;2.90;;;11.40;99.90;;;;;;4834136;29;20604;-51
2022/10/10 07:17:38;;;;;;;10.00;2.72;;;11.50;99.90;;;;;;4834446;29;20045;-54
2022/10/10 07:20:06;;;;;;;6.30;3.08;;;11.60;99.90;;;;;;4834493;29;20132;-50
2022/10/10 07:22:33;;;;;;;7.25;2.90;;;11.70;99.90;;;;;;4831523;29;20046;-54
2022/10/10 07:25:00;;;;;;;3.53;2.33;;;11.70;99.90;;;;;;4835097;29;20158;-54
2022/10/10 07:27:26;;;;;;;3.13;2.20;;;11.80;99.90;;;;;;4831615;29;20536;-53
2022/10/10 07:29:53;;;;;;;;;;;11.90;99.90;;;;;;4835700;29;20102;-53
2022/10/10 07:32:20;;;;;;;5.15;2.50;;;12.00;99.90;;;;;;4834815;29;19950;-52
2022/10/10 07:34:47;;;;;;;;;;;12.10;99.90;;;;;;4831555;29;20156;-55
2022/10/10 07:37:13;;;;;;;3.17;2.50;;;12.10;99.90;;;;;;4835035;29;20129;-50
2022/10/10 07:39:41;;;;;;;5.38;2.50;;;12.20;99.90;;;;;;4835146;29;20129;-53
2022/10/10 07:42:07;;;;;;;9.07;2.72;;;12.30;99.90;;;;;;4839400;29;20045;-52
2022/10/10 07:44:34;;;;;;;4.97;2.67;;;12.40;99.90;;;;;;4833516;29;20055;-52
2022/10/10 07:47:01;;;;;;;4.40;2.30;;;12.50;99.90;;;;;;4836906;29;20077;-57
2022/10/10 07:49:27;;;;;;;;;;;12.50;99.90;;;;;;4833284;29;20107;-51
2022/10/10 07:51:54;;;;;;;7.13;2.10;;;12.60;99.90;;;;;;4837931;29;19950;-51
2022/10/10 07:54:27;;;;;;;2.65;2.45;;;12.70;99.90;;;;;;4834953;29;20054;-50
2022/10/10 07:56:54;;;;;;;5.20;3.03;;;12.80;99.90;;;;;;4835845;29;20347;-52
2022/10/10 07:59:22;;;;;;;4.35;2.70;;;12.90;99.90;;;;;;4835008;29;20053;-53
2022/10/10 08:01:49;;;;;;;6.20;3.95;;;12.90;99.90;;;;;;4835200;29;20054;-54
2022/10/10 08:04:17;;;;;;;7.07;2.95;;;13.00;99.90;;;;;;4833880;29;20341;-54
2022/10/10 08:06:43;;;;;;;11.43;3.85;;;13.10;99.90;;;;;;4838617;29;20053;-54
2022/10/10 08:09:10;;;;;;;4.93;2.90;;;13.20;99.90;;;;;;4836341;29;20081;-51
2022/10/10 08:11:37;;;;;;;;;;;13.20;99.90;;;;;;4834942;29;20187;-53
2022/10/10 08:14:03;;;;;;;7.28;3.00;;;13.30;99.90;;;;;;4835986;29;20231;-55
2022/10/10 08:16:30;;;;;;;6.63;3.08;;;13.30;99.90;;;;;;4837808;29;20045;-55
2022/10/10 08:18:57;;;;;;;5.75;2.88;;;13.40;99.90;;;;;;4834340;29;20133;-52
2022/10/10 08:21:24;;;;;;;8.40;3.42;;;13.50;99.90;;;;;;4835606;29;20052;-55
2022/10/10 08:23:51;;;;;;;8.30;3.08;;;13.50;99.90;;;;;;4833851;29;20125;-53
2022/10/10 08:26:21;;;;;;;3.95;2.63;;;13.60;99.90;;;;;;4837252;29;20045;-55
2022/10/10 08:28:48;;;;;;;19.90;3.47;;;13.70;99.90;;;;;;4828496;29;20540;-53
2022/10/10 08:31:18;;;;;;;9.18;2.67;;;13.70;99.90;;;;;;4834911;29;20289;-51
2022/10/10 08:33:45;;;;;;;6.20;2.78;;;13.80;99.90;;;;;;4842605;29;20076;-55
2022/10/10 08:36:15;;;;;;;9.23;3.00;;;13.90;99.90;;;;;;4838315;29;20084;-51
2022/10/10 08:38:43;;;;;;;4.93;2.97;;;13.90;99.90;;;;;;4837550;29;20276;-54
2022/10/10 08:41:33;;;;;;;4.53;3.10;;;14.00;99.90;;;;;;4834465;29;20049;-55
2022/10/10 08:44:05;;;;;;;6.72;3.92;;;14.10;99.90;;;;;;4828962;29;20139;-56
2022/10/10 08:47:12;;;;;;;5.07;2.97;;;14.20;99.90;;;;;;4833130;29;20069;-55
2022/10/10 08:49:56;;;;;;;6.32;2.75;;;14.20;99.90;;;;;;4835201;29;20140;-56
2022/10/10 08:52:31;;;;;;;8.50;3.38;;;14.30;99.90;;;;;;4838305;29;20510;-54
2022/10/10 08:55:02;;;;;;;5.95;2.45;;;14.40;99.90;;;;;;4840308;29;20053;-56
2022/10/10 08:57:34;;;;;;;11.65;3.30;;;14.40;99.90;;;;;;4832081;29;20042;-53
2022/10/10 09:00:05;;;;;;;6.25;3.28;;;14.50;99.90;;;;;;4828655;29;20127;-55
2022/10/10 09:02:43;;;;;;;5.75;2.80;;;14.60;99.90;;;;;;4837214;29;20053;-57
2022/10/10 09:05:39;;;;;;;10.18;3.83;;;14.60;99.90;;;;;;4835584;29;20136;-54
2022/10/10 09:08:27;;;;;;;6.68;2.80;;;14.70;99.90;;;;;;4831838;29;20050;-55
2022/10/10 09:10:58;;;;;;;5.75;2.70;;;14.90;99.90;;;;;;4835852;29;20064;-55
2022/10/10 09:13:35;;;;;;;8.70;2.85;;;14.90;99.90;;;;;;4834446;29;20156;-56
2022/10/10 09:16:41;;;;;;;7.03;3.35;;;15.10;99.90;;;;;;4833512;29;20072;-54
2022/10/10 09:19:32;;;;;;;9.05;2.80;;;15.20;99.90;;;;;;4837771;29;20049;-60
2022/10/10 09:22:03;;;;;;;6.45;4.45;;;15.30;99.90;;;;;;4833449;29;20547;-54
2022/10/10 09:24:40;;;;;;;6.60;3.55;;;15.40;99.90;;;;;;4833431;29;20068;-55
2022/10/10 09:27:14;;;;;;;6.88;3.13;;;15.50;99.90;;;;;;4833349;29;20531;-55
2022/10/10 09:29:48;;;;;;;6.13;3.13;;;15.50;99.90;;;;;;4836368;29;20344;-55
2022/10/10 09:32:37;;;;;;;7.53;3.63;;;15.70;99.90;;;;;;4833371;29;20371;-53
2022/10/10 09:35:24;;;;;;;7.30;2.95;;;15.70;99.90;;;;;;4833864;29;20515;-53
2022/10/10 09:38:01;;;;;;;7.20;3.05;;;15.80;99.90;;;;;;4835456;29;20051;-51
2022/10/10 09:40:35;;;;;;;9.77;3.00;;;15.80;99.90;;;;;;4836703;29;20135;-54
2022/10/10 09:43:20;;;;;;;5.68;2.53;;;15.90;99.90;;;;;;4828908;29;20057;-56
2022/10/10 09:45:51;;;;;;;7.88;2.92;;;16.00;99.90;;;;;;4832759;29;20327;-55
2022/10/10 09:48:22;;;;;;;7.03;3.75;;;16.10;99.90;;;;;;4835576;29;20045;-56
2022/10/10 09:50:48;;;;;;;6.50;4.03;;;16.10;99.90;;;;;;4831357;29;20371;-54
2022/10/10 09:53:15;;;;;;;;;;;16.20;99.90;;;;;;4833232;29;20134;-51
2022/10/10 09:55:44;;;;;;;12.27;3.60;;;16.30;99.90;;;;;;4836904;29;20156;-55
2022/10/10 09:58:29;;;;;;;4.88;3.03;;;16.30;99.90;;;;;;4818513;29;20058;-55
2022/10/10 10:01:14;;;;;;;11.02;3.72;;;16.40;99.90;;;;;;4830289;29;20524;-54
2022/10/10 10:03:41;;;;;;;6.35;3.05;;;16.50;99.90;;;;;;4832488;29;20615;-54
2022/10/10 10:06:12;;;;;;;6.45;2.97;;;16.50;99.90;;;;;;4830028;29;20067;-54
2022/10/10 10:08:40;;;;;;;12.05;4.00;;;16.60;99.90;;;;;;4835262;29;20216;-55
2022/10/10 10:11:22;;;;;;;7.10;2.78;;;16.60;99.90;;;;;;4838226;29;20160;-56
2022/10/10 10:13:54;;;;;;;10.73;3.08;;;16.70;99.90;;;;;;4832549;29;20053;-51
2022/10/10 10:16:32;;;;;;;7.85;3.08;;;16.80;99.90;;;;;;4839279;29;20348;-51
2022/10/10 10:18:59;;;;;;;9.65;3.47;;;16.90;99.90;;;;;;4835485;29;20049;-54
2022/10/10 10:21:26;;;;;;;5.72;2.78;;;17.00;99.90;;;;;;4830553;29;20388;-54
2022/10/10 10:24:02;;;;;;;5.20;1.92;;;17.30;99.90;;;;;;4835320;29;20054;-53
2022/10/10 10:26:45;;;;;;;13.45;4.40;;;17.70;99.90;;;;;;4834103;29;20360;-53
2022/10/10 10:29:28;;;;;;;6.70;2.65;;;18.20;99.90;;;;;;4832735;29;20046;-50
2022/10/10 10:32:10;;;;;;;4.93;1.45;;;18.80;99.90;;;;;;4838759;29;20068;-54
2022/10/10 10:35:06;;;;;;;5.95;1.55;;;19.40;99.90;;;;;;4833104;29;20056;-57
2022/10/10 10:38:00;;;;;;;4.22;1.70;;;19.90;99.90;;;;;;4832998;29;20072;-56
2022/10/10 10:40:35;;;;;;;6.32;1.45;;;20.40;99.90;;;;;;4838515;29;20101;-52
2022/10/10 10:43:02;;;;;;;5.57;1.70;;;21.00;99.90;;;;;;4834248;29;20058;-57
2022/10/10 10:45:32;;;;;;;;;;;21.50;99.90;;;;;;4833355;29;20090;-57
2022/10/10 10:48:20;;;;;;;4.55;1.73;;;21.80;99.90;;;;;;4835859;29;19928;-56
2022/10/10 10:51:01;;;;;;;3.80;1.58;;;22.00;99.90;;;;;;4834693;29;20046;-57
2022/10/10 10:53:42;;;;;;;5.53;1.52;;;22.20;97.70;;;;;;4832473;29;20065;-52
2022/10/10 10:56:27;;;;;;;1.92;1.42;;;22.20;97.50;;;;;;4829479;29;20045;-56
2022/10/10 10:59:20;;;;;;;5.10;1.45;;;22.10;99.50;;;;;;4831776;29;20054;-53
2022/10/10 11:02:07;;;;;;;4.68;1.75;;;22.00;99.90;;;;;;4831377;29;20069;-53
2022/10/10 11:05:07;;;;;;;4.35;1.80;;;21.80;99.90;;;;;;4829293;29;20313;-52
2022/10/10 11:08:23;;;;;;;6.72;2.03;;;21.60;99.90;;;;;;4832732;29;20713;-52
2022/10/10 11:10:56;;;;;;;3.92;1.73;;;21.50;99.90;;;;;;4832646;29;20232;-54
2022/10/10 11:13:36;;;;;;;10.55;2.00;;;21.40;99.90;;;;;;4835287;29;20041;-56
2022/10/10 11:16:22;;;;;;;5.70;3.47;;;21.30;99.90;;;;;;4839244;29;20053;-55
2022/10/10 11:19:24;;;;;;;3.45;2.00;;;21.30;99.90;;;;;;4841144;29;20061;-52
2022/10/10 11:22:17;;;;;;;8.60;1.85;;;21.30;99.90;;;;;;4838512;29;20075;-52
2022/10/10 11:24:57;;;;;;;3.38;1.80;;;21.50;99.90;;;;;;4842217;29;20118;-51
2022/10/10 11:27:27;;;;;;;7.82;1.88;;;21.90;99.90;;;;;;4835725;29;20635;-54
2022/10/10 11:30:03;;;;;;;5.90;2.35;;;22.30;99.90;;;;;;4834638;29;20057;-54
2022/10/10 11:32:56;;;;;;;5.73;2.13;;;22.90;99.90;;;;;;4834855;29;20063;-51
2022/10/10 11:35:35;;;;;;;5.43;1.67;;;23.40;99.90;;;;;;4838174;29;20128;-52
2022/10/10 11:38:27;;;;;;;7.95;2.38;;;23.80;91.40;;;;;;4835035;29;20060;-53
2022/10/10 11:41:02;;;;;;;6.85;1.83;;;24.10;90.20;;;;;;4834490;29;20833;-56
2022/10/10 11:43:55;;;;;;;3.35;1.80;;;24.40;83.70;;;;;;4837524;29;20383;-57
2022/10/10 11:46:58;;;;;;;9.18;1.85;;;24.40;83.10;;;;;;4839660;29;20067;-54
2022/10/10 11:49:37;;;;;;;5.30;2.20;;;24.60;80.40;;;;;;4833581;29;20507;-53
2022/10/10 11:52:19;;;;;;;2.85;2.00;;;24.60;81.50;;;;;;4836640;29;20057;-56
2022/10/10 11:55:25;;;;;;;5.80;2.53;;;24.50;79.00;;;;;;4833295;29;20201;-51
2022/10/10 11:58:17;;;;;;;1.85;1.42;;;24.00;80.80;;;;;;4839159;29;20069;-52
2022/10/10 12:00:52;;;;;;;3.30;2.08;;;23.70;86.30;;;;;;4835785;29;20576;-54
2022/10/10 12:03:18;;;;;;;5.70;1.98;;;23.60;90.20;;;;;;4840761;29;20201;-53
2022/10/10 12:05:51;;;;;;;2.58;1.67;;;23.60;90.80;;;;;;4834526;29;20081;-52
2022/10/10 12:08:28;;;;;;;6.38;1.88;;;23.50;90.40;;;;;;4836368;29;20050;-53
2022/10/10 12:11:14;;;;;;;;;;;23.40;86.60;;;;;;4836850;29;20615;-53
2022/10/10 12:13:46;;;;;;;10.95;3.35;;;23.40;86.10;;;;;;4836868;29;20017;-57
2022/10/10 12:16:17;;;;;;;3.67;1.73;;;23.50;88.10;;;;;;4839000;29;20054;-54
2022/10/10 12:18:59;;;;;;;8.50;1.88;;;23.70;88.30;;;;;;4836799;29;20080;-55
2022/10/10 12:21:28;;;;;;;5.82;1.90;;;23.80;84.60;;;;;;4845221;29;20177;-53
2022/10/10 12:24:10;;;;;;;5.38;1.88;;;23.50;83.70;;;;;;4836665;29;20277;-54
2022/10/10 12:26:56;;;;;;;4.50;2.58;;;23.40;85.70;;;;;;4835399;29;20671;-53
2022/10/10 12:29:43;;;;;;;4.88;1.92;;;23.50;89.60;;;;;;4834205;29;20623;-50
2022/10/10 12:32:18;;;;;;;7.78;1.70;;;23.80;90.90;;;;;;4834884;29;20059;-57
2022/10/10 12:34:48;;;;;;;5.05;2.35;;;24.10;85.20;;;;;;4835780;29;20085;-53
2022/10/10 12:37:29;;;;;;;2.28;1.77;;;24.20;80.80;;;;;;4830237;29;20062;-55
2022/10/10 12:40:04;;;;;;;3.72;2.55;;;24.30;82.40;;;;;;4835710;29;20059;-52
2022/10/10 12:42:36;;;;;;;7.53;2.10;;;24.20;81.80;;;;;;4838879;29;20048;-54
2022/10/10 12:45:29;;;;;;;5.28;1.70;;;24.00;84.30;;;;;;4833824;29;20050;-55
2022/10/10 12:48:01;;;;;;;3.40;2.03;;;23.70;83.00;;;;;;4831477;29;20488;-52
2022/10/10 12:50:39;;;;;;;6.25;2.40;;;23.20;88.00;;;;;;4833784;29;20058;-52
2022/10/10 12:53:11;;;;;;;4.05;2.28;;;23.00;92.50;;;;;;4834927;29;20045;-54
2022/10/10 12:55:42;;;;;;;4.88;2.60;;;22.80;93.30;;;;;;4832922;29;20105;-52
2022/10/10 12:58:26;;;;;;;3.70;1.92;;;22.50;95.70;;;;;;4835489;29;20125;-48
2022/10/10 13:01:02;;;;;;;3.50;2.15;;;22.30;99.40;;;;;;4829295;29;20118;-54
2022/10/10 13:03:32;;;;;;;3.80;2.30;;;22.10;99.90;;;;;;4834375;29;20280;-52
2022/10/10 13:06:23;;;;;;;6.10;2.85;;;22.00;99.90;;;;;;4835891;29;20616;-53
2022/10/10 13:08:52;;;;;;;10.32;3.28;;;21.80;99.90;;;;;;4825721;29;20421;-50
2022/10/10 13:11:19;;;;;;;5.72;2.15;;;21.70;99.90;;;;;;4837180;29;20051;-55
2022/10/10 13:13:55;;;;;;;7.70;2.45;;;21.50;99.90;;;;;;4838022;29;21003;-54
2022/10/10 13:16:27;;;;;;;3.35;2.22;;;21.30;99.90;;;;;;4832891;29;20125;-51
2022/10/10 13:18:59;;;;;;;3.08;2.42;;;21.20;99.90;;;;;;4837603;29;20156;-52
2022/10/10 13:21:30;;;;;;;8.07;2.45;;;21.10;99.90;;;;;;4837635;29;20093;-53
2022/10/10 13:24:03;;;;;;;5.80;2.00;;;21.00;99.90;;;;;;4837173;29;20037;-54
2022/10/10 13:26:46;;;;;;;5.03;1.90;;;20.90;99.90;;;;;;4840695;29;20358;-54